createdAt,value
2024-03-08T00:00:22.450Z,1.10
2024-03-08T00:03:30.150Z,1.12
2024-03-08T00:06:09.085Z,1.20
2024-03-08T00:09:01.609Z,1.20
2024-03-08T00:12:04.690Z,1.12
2024-03-08T00:14:46.063Z,1.10
2024-03-08T00:17:30.304Z,1.10
2024-03-08T00:20:39.381Z,1.08
2024-03-08T00:23:24.745Z,1.02
2024-03-08T00:26:05.528Z,1.02
2024-03-08T00:29:14.417Z,1.02
2024-03-08T00:31:54.405Z,1.00
2024-03-08T00:35:00.712Z,1.00
2024-03-08T00:37:52.435Z,0.94
2024-03-08T00:40:55.193Z,0.90
2024-03-08T00:43:31.566Z,0.90
2024-03-08T00:46:08.294Z,0.90
2024-03-08T00:48:58.471Z,0.80
2024-03-08T00:51:29.493Z,0.80
2024-03-08T00:54:11.459Z,0.80
2024-03-08T00:56:56.567Z,0.80
2024-03-08T00:59:44.214Z,0.80
2024-03-08T01:02:30.402Z,0.80
2024-03-08T01:05:10.615Z,0.70
2024-03-08T01:07:50.261Z,0.70
2024-03-08T01:10:34.934Z,0.70
2024-03-08T01:13:07.109Z,0.70
2024-03-08T01:16:18.010Z,0.60
2024-03-08T01:18:55.434Z,0.60
2024-03-08T01:21:35.444Z,0.60
2024-03-08T01:24:29.802Z,0.56
2024-03-08T01:27:07.029Z,0.54
2024-03-08T01:29:40.768Z,0.52
2024-03-08T01:32:17.429Z,0.50
2024-03-08T01:35:12.231Z,0.50
2024-03-08T01:37:40.799Z,0.50
2024-03-08T01:40:18.017Z,0.50
2024-03-08T01:43:16.294Z,0.50
2024-03-08T01:46:04.543Z,0.50
2024-03-08T01:48:57.094Z,0.50
2024-03-08T01:52:00.712Z,0.58
2024-03-08T01:54:59.476Z,0.58
2024-03-08T01:57:47.186Z,0.60
2024-03-08T02:00:30.525Z,0.60
2024-03-08T02:03:32.579Z,0.54
2024-03-08T02:06:09.576Z,0.50
2024-03-08T02:09:00.735Z,0.50
2024-03-08T02:11:49.606Z,0.42
2024-03-08T02:14:56.821Z,0.40
2024-03-08T02:17:38.468Z,0.46
2024-03-08T02:20:22.287Z,0.50
2024-03-08T02:23:07.129Z,0.44
2024-03-08T02:26:03.405Z,0.40
2024-03-08T02:29:31.291Z,0.40
2024-03-08T02:32:25.476Z,0.40
2024-03-08T02:35:01.274Z,0.40
2024-03-08T02:38:04.813Z,0.40
2024-03-08T02:40:58.822Z,0.40
2024-03-08T02:43:40.200Z,0.40
2024-03-08T02:46:26.630Z,0.30
2024-03-08T02:49:09.193Z,0.30
2024-03-08T02:51:50.837Z,0.30
2024-03-08T02:54:47.498Z,0.28
2024-03-08T02:57:31.866Z,0.24
2024-03-08T03:00:05.050Z,0.20
2024-03-08T03:02:55.771Z,0.20
2024-03-08T03:05:35.744Z,0.20
2024-03-08T03:08:40.109Z,0.12
2024-03-08T03:11:13.429Z,0.10
2024-03-08T03:14:02.436Z,0.00
2024-03-08T03:16:51.969Z,0.04
2024-03-08T03:19:57.822Z,0.10
2024-03-08T03:22:36.031Z,0.10
2024-03-08T03:25:13.904Z,0.10
2024-03-08T03:27:47.860Z,0.04
2024-03-08T03:30:37.071Z,0.00
2024-03-08T03:33:15.758Z,0.00
2024-03-08T03:36:02.171Z,0.00
2024-03-08T03:39:05.753Z,0.00
2024-03-08T03:41:37.049Z,-0.06
2024-03-08T03:44:12.529Z,0.00
2024-03-08T03:46:50.003Z,-0.08
2024-03-08T03:49:37.499Z,-0.06
2024-03-08T03:52:14.547Z,0.00
2024-03-08T03:55:08.197Z,0.00
2024-03-08T03:58:08.891Z,0.00
2024-03-08T04:01:11.290Z,0.00
2024-03-08T04:03:44.469Z,0.00
2024-03-08T04:06:31.197Z,0.00
2024-03-08T04:09:02.945Z,0.00
2024-03-08T04:12:08.710Z,0.00
2024-03-08T04:15:00.418Z,0.00
2024-03-08T04:17:29.245Z,0.00
2024-03-08T04:20:06.077Z,-0.02
2024-03-08T04:22:43.089Z,-0.10
2024-03-08T04:25:14.724Z,-0.10
2024-03-08T04:27:50.326Z,-0.20
2024-03-08T04:30:22.663Z,-0.20
2024-03-08T04:33:02.102Z,-0.20
2024-03-08T04:35:37.004Z,-0.30
2024-03-08T04:38:08.982Z,-0.30
2024-03-08T04:40:53.214Z,-0.40
2024-03-08T04:43:28.045Z,-0.40
2024-03-08T04:46:17.818Z,-0.40
2024-03-08T04:49:06.004Z,-0.40
2024-03-08T04:51:47.267Z,-0.30
2024-03-08T04:54:15.932Z,-0.40
2024-03-08T04:56:52.174Z,-0.40
2024-03-08T04:59:21.127Z,-0.40
2024-03-08T05:02:10.125Z,-0.40
2024-03-08T05:04:44.663Z,-0.40
2024-03-08T05:07:22.006Z,-0.50
2024-03-08T05:10:19.858Z,-0.50
2024-03-08T05:13:03.225Z,-0.50
2024-03-08T05:15:52.547Z,-0.40
2024-03-08T05:18:43.855Z,-0.40
2024-03-08T05:21:23.726Z,-0.40
2024-03-08T05:23:55.326Z,-0.40
2024-03-08T05:26:42.715Z,-0.40
2024-03-08T05:29:16.872Z,-0.40
2024-03-08T05:31:55.216Z,-0.40
2024-03-08T05:34:27.469Z,-0.40
2024-03-08T05:37:08.480Z,-0.38
2024-03-08T05:39:36.971Z,-0.38
2024-03-08T05:42:13.111Z,-0.38
2024-03-08T05:44:58.571Z,-0.30
2024-03-08T05:47:31.802Z,-0.30
2024-03-08T05:50:10.874Z,-0.30
2024-03-08T05:52:45.529Z,-0.30
2024-03-08T05:55:17.758Z,-0.36
2024-03-08T05:57:56.481Z,-0.40
2024-03-08T06:00:32.785Z,-0.40
2024-03-08T06:03:07.650Z,-0.40
2024-03-08T06:06:09.705Z,-0.40
2024-03-08T06:08:45.031Z,-0.32
2024-03-08T06:11:44.843Z,-0.20
2024-03-08T06:14:31.355Z,-0.10
2024-03-08T06:17:03.417Z,0.00
2024-03-08T06:19:37.521Z,0.10
2024-03-08T06:22:11.825Z,0.20
2024-03-08T06:24:42.808Z,0.40
2024-03-08T06:27:11.644Z,0.60
2024-03-08T06:29:43.243Z,0.80
2024-03-08T06:32:16.928Z,1.00
2024-03-08T06:34:48.426Z,1.20
2024-03-08T06:37:25.801Z,1.40
2024-03-08T06:40:19.258Z,1.60
2024-03-08T06:42:56.724Z,1.74
2024-03-08T06:45:38.848Z,1.96
2024-03-08T06:48:21.056Z,2.10
2024-03-08T06:50:52.091Z,2.40
2024-03-08T06:53:28.535Z,2.70
2024-03-08T06:56:09.504Z,3.00
2024-03-08T06:58:49.194Z,3.24
2024-03-08T07:01:21.266Z,3.46
2024-03-08T07:03:58.136Z,3.72
2024-03-08T07:06:34.454Z,3.98
2024-03-08T07:09:05.459Z,4.26
2024-03-08T07:11:45.401Z,4.50
2024-03-08T07:14:19.792Z,4.72
2024-03-08T07:16:48.300Z,5.00
2024-03-08T07:19:17.996Z,5.28
2024-03-08T07:21:48.608Z,5.50
2024-03-08T07:24:39.213Z,5.80
2024-03-08T07:27:07.711Z,6.14
2024-03-08T07:29:36.419Z,6.54
2024-03-08T07:32:23.317Z,6.98
2024-03-08T07:34:52.210Z,7.32
2024-03-08T07:37:21.794Z,7.80
2024-03-08T07:39:50.341Z,8.20
2024-03-08T07:42:18.605Z,8.56
2024-03-08T07:44:49.836Z,8.98
2024-03-08T07:47:21.288Z,9.46
2024-03-08T07:49:50.662Z,9.90
2024-03-08T07:52:19.339Z,10.16
2024-03-08T07:54:47.668Z,10.56
2024-03-08T07:57:15.873Z,11.06
2024-03-08T07:59:44.176Z,11.28
2024-03-08T08:02:12.397Z,11.68
2024-03-08T08:04:40.587Z,12.04
2024-03-08T08:07:08.878Z,12.30
2024-03-08T08:09:36.969Z,12.40
2024-03-08T08:12:06.253Z,12.60
2024-03-08T08:14:34.449Z,12.90
2024-03-08T08:17:05.490Z,12.86
2024-03-08T08:19:34.552Z,12.98
2024-03-08T08:22:03.962Z,13.00
2024-03-08T08:24:32.349Z,13.00
2024-03-08T08:27:00.758Z,12.90
2024-03-08T08:29:29.067Z,13.30
2024-03-08T08:32:01.161Z,13.70
2024-03-08T08:34:31.449Z,13.90
2024-03-08T08:36:59.662Z,14.14
2024-03-08T08:39:28.043Z,14.32
2024-03-08T08:41:56.674Z,14.50
2024-03-08T08:44:24.911Z,14.62
2024-03-08T08:46:55.576Z,14.60
2024-03-08T08:49:27.283Z,14.58
2024-03-08T08:51:58.957Z,14.90
2024-03-08T08:54:28.799Z,15.10
2024-03-08T08:56:56.930Z,15.32
2024-03-08T08:59:26.376Z,15.38
2024-03-08T09:01:55.125Z,15.50
2024-03-08T09:04:24.464Z,15.50
2024-03-08T09:06:52.667Z,15.60
2024-03-08T09:09:21.017Z,15.70
2024-03-08T09:11:50.956Z,15.44
2024-03-08T09:14:19.266Z,15.24
2024-03-08T09:16:48.668Z,15.10
2024-03-08T09:19:18.499Z,15.12
2024-03-08T09:21:47.032Z,14.94
2024-03-08T09:24:15.186Z,14.80
2024-03-08T09:26:44.360Z,14.52
2024-03-08T09:29:13.131Z,14.08
2024-03-08T09:31:41.827Z,13.84
2024-03-08T09:34:13.367Z,13.96
2024-03-08T09:36:43.337Z,14.20
2024-03-08T09:39:17.564Z,14.14
2024-03-08T09:41:45.750Z,14.20
2024-03-08T09:44:14.884Z,14.20
2024-03-08T09:46:43.835Z,14.40
2024-03-08T09:49:12.932Z,14.48
2024-03-08T09:51:41.907Z,14.30
2024-03-08T09:54:14.815Z,14.20
2024-03-08T09:56:52.269Z,14.10
2024-03-08T09:59:26.973Z,13.98
2024-03-08T10:02:00.275Z,14.04
2024-03-08T10:04:32.242Z,13.80
2024-03-08T10:07:02.903Z,13.50
2024-03-08T10:09:31.575Z,13.40
2024-03-08T10:12:00.466Z,13.30
2024-03-08T10:14:29.484Z,13.10
2024-03-08T10:17:02.091Z,13.00
2024-03-08T10:19:31.538Z,13.06
2024-03-08T10:22:00.607Z,13.12
2024-03-08T10:24:29.943Z,13.30
2024-03-08T10:27:06.560Z,13.48
2024-03-08T10:29:34.643Z,13.56
2024-03-08T10:32:03.676Z,13.50
2024-03-08T10:34:31.940Z,13.30
2024-03-08T10:37:06.949Z,13.10
2024-03-08T10:39:39.231Z,13.18
2024-03-08T10:42:14.561Z,13.00
2024-03-08T10:45:13.699Z,12.80
2024-03-08T10:47:43.156Z,12.80
2024-03-08T10:50:23.172Z,12.60
2024-03-08T10:52:53.122Z,12.50
2024-03-08T10:55:22.752Z,12.50
2024-03-08T10:57:50.902Z,12.50
2024-03-08T11:00:27.951Z,12.28
2024-03-08T11:02:56.568Z,12.10
2024-03-08T11:05:44.650Z,12.20
2024-03-08T11:08:21.715Z,12.10
2024-03-08T11:10:57.106Z,12.10
2024-03-08T11:13:47.120Z,11.94
2024-03-08T11:16:46.570Z,11.90
2024-03-08T11:19:14.941Z,11.90
2024-03-08T11:21:45.067Z,11.90
2024-03-08T11:24:15.293Z,11.74
2024-03-08T11:26:48.021Z,11.68
2024-03-08T11:29:37.666Z,11.50
2024-03-08T11:32:08.936Z,11.50
2024-03-08T11:34:38.181Z,11.40
2024-03-08T11:37:13.863Z,11.50
2024-03-08T11:39:52.257Z,11.60
2024-03-08T11:42:22.277Z,11.60
2024-03-08T11:44:52.289Z,11.52
2024-03-08T11:47:21.288Z,11.40
2024-03-08T11:49:50.238Z,11.30
2024-03-08T11:52:20.242Z,11.20
2024-03-08T11:54:59.316Z,11.10
2024-03-08T11:57:29.819Z,11.00
2024-03-08T11:59:58.316Z,10.90
2024-03-08T12:02:27.032Z,10.90
2024-03-08T12:05:02.009Z,10.90
2024-03-08T12:07:33.521Z,10.72
2024-03-08T12:10:24.506Z,10.86
2024-03-08T12:12:55.556Z,10.98
2024-03-08T12:15:25.599Z,11.10
2024-03-08T12:17:59.497Z,11.18
2024-03-08T12:20:33.157Z,11.20
2024-03-08T12:23:01.645Z,11.30
2024-03-08T12:25:38.197Z,11.20
2024-03-08T12:28:15.767Z,11.10
2024-03-08T12:30:52.168Z,11.12
2024-03-08T12:33:20.695Z,11.20
2024-03-08T12:35:57.359Z,11.24
2024-03-08T12:38:29.331Z,11.20
2024-03-08T12:41:00.814Z,11.12
2024-03-08T12:43:32.844Z,11.20
2024-03-08T12:46:01.872Z,11.20
2024-03-08T12:48:36.202Z,11.10
2024-03-08T12:51:05.300Z,11.00
2024-03-08T12:53:33.386Z,10.90
2024-03-08T12:56:01.899Z,10.90
2024-03-08T12:58:30.318Z,10.90
2024-03-08T13:00:58.379Z,10.92
2024-03-08T13:03:26.658Z,11.10
2024-03-08T13:05:55.044Z,11.10
2024-03-08T13:08:26.118Z,11.10
2024-03-08T13:10:55.357Z,11.10
2024-03-08T13:13:24.041Z,11.06
2024-03-08T13:15:52.473Z,11.08
2024-03-08T13:18:20.578Z,11.00
2024-03-08T13:20:52.886Z,11.00
2024-03-08T13:23:21.017Z,11.00
2024-03-08T13:25:49.952Z,11.10
2024-03-08T13:28:24.433Z,11.06
2024-03-08T13:30:57.320Z,11.04
2024-03-08T13:33:28.745Z,11.00
2024-03-08T13:36:04.553Z,11.00
2024-03-08T13:38:35.272Z,10.92
2024-03-08T13:41:06.921Z,11.00
2024-03-08T13:43:37.267Z,10.90
2024-03-08T13:46:05.976Z,10.88
2024-03-08T13:48:35.399Z,10.80
2024-03-08T13:51:03.725Z,10.80
2024-03-08T13:53:31.987Z,10.80
2024-03-08T13:56:01.730Z,10.70
2024-03-08T13:58:30.280Z,10.70
2024-03-08T14:00:58.823Z,10.70
2024-03-08T14:03:26.983Z,10.72
2024-03-08T14:05:56.982Z,10.80
2024-03-08T14:08:26.175Z,10.70
2024-03-08T14:10:55.266Z,10.80
2024-03-08T14:13:25.004Z,10.80
2024-03-08T14:15:54.151Z,10.70
2024-03-08T14:18:22.437Z,10.70
2024-03-08T14:20:51.945Z,10.70
2024-03-08T14:23:21.380Z,10.70
2024-03-08T14:25:53.259Z,10.70
2024-03-08T14:28:22.217Z,10.66
2024-03-08T14:30:50.512Z,10.60
2024-03-08T14:33:18.649Z,10.60
2024-03-08T14:35:50.862Z,10.50
2024-03-08T14:38:18.895Z,10.46
2024-03-08T14:40:48.592Z,10.40
2024-03-08T14:43:17.951Z,10.40
2024-03-08T14:45:48.620Z,10.40
2024-03-08T14:48:16.775Z,10.40
2024-03-08T14:50:45.280Z,10.30
2024-03-08T14:53:17.213Z,10.20
2024-03-08T14:55:48.660Z,10.10
2024-03-08T14:58:17.141Z,10.06
2024-03-08T15:00:46.023Z,10.00
2024-03-08T15:03:17.273Z,10.00
2024-03-08T15:05:49.258Z,10.00
2024-03-08T15:08:26.384Z,9.92
2024-03-08T15:11:00.311Z,9.90
2024-03-08T15:13:35.219Z,9.98
2024-03-08T15:16:07.470Z,9.90
2024-03-08T15:18:37.514Z,9.80
2024-03-08T15:21:07.757Z,9.80
2024-03-08T15:23:37.501Z,9.80
2024-03-08T15:26:08.926Z,9.82
2024-03-08T15:28:38.593Z,9.80
2024-03-08T15:31:08.298Z,9.80
2024-03-08T15:33:46.008Z,9.70
2024-03-08T15:36:16.682Z,9.60
2024-03-08T15:38:50.021Z,9.60
2024-03-08T15:41:22.138Z,9.60
2024-03-08T15:43:51.441Z,9.50
2024-03-08T15:46:24.333Z,9.50
2024-03-08T15:48:53.262Z,9.40
2024-03-08T15:51:21.826Z,9.36
2024-03-08T15:53:57.596Z,9.30
2024-03-08T15:56:27.208Z,9.30
2024-03-08T15:58:55.800Z,9.20
2024-03-08T16:01:26.175Z,9.20
2024-03-08T16:03:56.221Z,9.10
2024-03-08T16:06:25.940Z,9.10
2024-03-08T16:08:54.611Z,9.10
2024-03-08T16:11:24.296Z,9.00
2024-03-08T16:13:52.645Z,9.00
2024-03-08T16:16:21.038Z,8.92
2024-03-08T16:18:49.351Z,8.90
2024-03-08T16:21:20.190Z,8.84
2024-03-08T16:23:52.841Z,8.80
2024-03-08T16:26:21.107Z,8.72
2024-03-08T16:28:49.401Z,8.70
2024-03-08T16:31:17.787Z,8.68
2024-03-08T16:33:46.412Z,8.60
2024-03-08T16:36:15.542Z,8.60
2024-03-08T16:38:46.703Z,8.50
2024-03-08T16:41:15.860Z,8.40
2024-03-08T16:43:47.363Z,8.32
2024-03-08T16:46:15.710Z,8.30
2024-03-08T16:48:44.176Z,8.20
2024-03-08T16:51:12.942Z,8.10
2024-03-08T16:53:42.518Z,8.10
2024-03-08T16:56:14.354Z,8.00
2024-03-08T16:58:43.529Z,7.90
2024-03-08T17:01:12.750Z,7.90
2024-03-08T17:03:51.970Z,7.80
2024-03-08T17:06:24.840Z,7.80
2024-03-08T17:08:56.378Z,7.70
2024-03-08T17:11:25.786Z,7.70
2024-03-08T17:13:54.803Z,7.60
2024-03-08T17:16:26.446Z,7.50
2024-03-08T17:18:55.483Z,7.48
2024-03-08T17:21:25.678Z,7.40
2024-03-08T17:23:54.026Z,7.32
2024-03-08T17:26:22.498Z,7.30
2024-03-08T17:28:51.399Z,7.22
2024-03-08T17:31:22.640Z,7.20
2024-03-08T17:33:51.201Z,7.10
2024-03-08T17:36:22.314Z,7.00
2024-03-08T17:38:52.023Z,7.00
2024-03-08T17:41:24.786Z,6.96
2024-03-08T17:43:54.698Z,6.90
2024-03-08T17:46:29.144Z,6.80
2024-03-08T17:48:57.515Z,6.80
2024-03-08T17:51:28.528Z,6.70
2024-03-08T17:53:59.377Z,6.70
2024-03-08T17:56:35.088Z,6.62
2024-03-08T17:59:04.546Z,6.60
2024-03-08T18:01:34.170Z,6.60
2024-03-08T18:04:08.002Z,6.50
2024-03-08T18:06:42.104Z,6.50
2024-03-08T18:09:14.115Z,6.48
2024-03-08T18:11:42.451Z,6.40
2024-03-08T18:14:15.059Z,6.38
2024-03-08T18:16:46.500Z,6.30
2024-03-08T18:19:20.601Z,6.26
2024-03-08T18:21:49.663Z,6.20
2024-03-08T18:24:19.479Z,6.14
2024-03-08T18:26:51.930Z,6.10
2024-03-08T18:29:20.344Z,6.10
2024-03-08T18:31:49.732Z,6.00
2024-03-08T18:34:18.230Z,6.00
2024-03-08T18:36:46.669Z,5.92
2024-03-08T18:39:17.767Z,5.90
2024-03-08T18:41:47.175Z,5.90
2024-03-08T18:44:19.450Z,5.90
2024-03-08T18:46:47.936Z,5.80
2024-03-08T18:49:18.579Z,5.80
2024-03-08T18:51:55.747Z,5.70
2024-03-08T18:54:28.013Z,5.70
2024-03-08T18:56:58.674Z,5.60
2024-03-08T18:59:32.299Z,5.60
2024-03-08T19:02:06.306Z,5.60
2024-03-08T19:04:35.099Z,5.52
2024-03-08T19:07:06.009Z,5.50
2024-03-08T19:09:45.983Z,5.50
2024-03-08T19:12:14.639Z,5.50
2024-03-08T19:14:45.500Z,5.42
2024-03-08T19:17:13.920Z,5.40
2024-03-08T19:19:42.546Z,5.40
2024-03-08T19:22:18.788Z,5.40
2024-03-08T19:25:08.452Z,5.40
2024-03-08T19:27:40.323Z,5.40
2024-03-08T19:30:14.819Z,5.40
2024-03-08T19:32:46.456Z,5.38
2024-03-08T19:35:19.553Z,5.40
2024-03-08T19:37:48.194Z,5.30
2024-03-08T19:40:23.756Z,5.30
2024-03-08T19:43:11.679Z,5.30
2024-03-08T19:45:47.202Z,5.30
2024-03-08T19:48:21.216Z,5.28
2024-03-08T19:51:06.502Z,5.22
2024-03-08T19:53:36.742Z,5.20
2024-03-08T19:56:08.006Z,5.20
2024-03-08T19:58:36.670Z,5.20
2024-03-08T20:01:05.940Z,5.20
2024-03-08T20:03:49.329Z,5.20
2024-03-08T20:06:28.851Z,5.20
2024-03-08T20:09:21.737Z,5.12
2024-03-08T20:11:56.525Z,5.10
2024-03-08T20:14:32.705Z,5.10
2024-03-08T20:17:21.800Z,5.10
2024-03-08T20:19:54.043Z,5.04
2024-03-08T20:22:31.949Z,5.00
2024-03-08T20:25:18.590Z,5.00
2024-03-08T20:27:55.408Z,5.00
2024-03-08T20:30:28.466Z,5.00
2024-03-08T20:33:00.211Z,5.00
2024-03-08T20:35:37.280Z,5.00
2024-03-08T20:38:11.364Z,5.00
2024-03-08T20:40:40.819Z,5.00
2024-03-08T20:43:15.451Z,5.00
2024-03-08T20:45:44.573Z,5.00
2024-03-08T20:48:16.520Z,5.00
2024-03-08T20:50:47.705Z,5.00
2024-03-08T20:53:20.913Z,5.00
2024-03-08T20:55:51.360Z,5.00
2024-03-08T20:58:24.178Z,5.00
2024-03-08T21:00:56.700Z,4.90
2024-03-08T21:03:28.376Z,4.90
2024-03-08T21:05:57.288Z,4.90
2024-03-08T21:08:29.824Z,4.90
2024-03-08T21:11:01.473Z,4.90
2024-03-08T21:13:30.740Z,4.90
2024-03-08T21:16:00.616Z,4.82
2024-03-08T21:18:37.966Z,4.80
2024-03-08T21:21:09.609Z,4.80
2024-03-08T21:23:42.602Z,4.80
2024-03-08T21:26:15.599Z,4.80
2024-03-08T21:28:46.884Z,4.80
2024-03-08T21:31:15.561Z,4.76
2024-03-08T21:33:43.997Z,4.70
2024-03-08T21:36:12.662Z,4.70
2024-03-08T21:38:41.183Z,4.70
2024-03-08T21:41:13.710Z,4.70
2024-03-08T21:43:46.820Z,4.60
2024-03-08T21:46:16.774Z,4.60
2024-03-08T21:48:48.468Z,4.60
2024-03-08T21:51:19.236Z,4.60
2024-03-08T21:53:47.924Z,4.58
2024-03-08T21:56:19.403Z,4.50
2024-03-08T21:58:50.567Z,4.50
2024-03-08T22:01:24.628Z,4.50
2024-03-08T22:03:55.687Z,4.50
2024-03-08T22:06:28.533Z,4.50
2024-03-08T22:09:00.184Z,4.46
2024-03-08T22:11:28.534Z,4.42
2024-03-08T22:13:56.788Z,4.40
2024-03-08T22:16:27.578Z,4.40
2024-03-08T22:18:59.318Z,4.34
2024-03-08T22:21:33.898Z,4.30
2024-03-08T22:24:02.449Z,4.30
2024-03-08T22:26:31.242Z,4.30
2024-03-08T22:29:09.781Z,4.24
2024-03-08T22:31:41.803Z,4.20
2024-03-08T22:34:11.770Z,4.20
2024-03-08T22:36:43.507Z,4.20
2024-03-08T22:39:12.015Z,4.20
2024-03-08T22:41:40.620Z,4.20
2024-03-08T22:44:09.362Z,4.10
2024-03-08T22:46:37.860Z,4.10
2024-03-08T22:49:09.289Z,4.10
2024-03-08T22:51:42.576Z,4.10
2024-03-08T22:54:16.659Z,4.10
2024-03-08T22:56:47.374Z,4.10
2024-03-08T22:59:22.371Z,4.10
2024-03-08T23:01:59.486Z,4.10
2024-03-08T23:04:30.443Z,4.10
2024-03-08T23:07:02.071Z,4.10
2024-03-08T23:09:48.228Z,4.10
2024-03-08T23:12:19.310Z,4.06
2024-03-08T23:14:47.865Z,4.02
2024-03-08T23:17:16.492Z,4.08
2024-03-08T23:19:57.013Z,4.00
2024-03-08T23:22:26.313Z,4.00
2024-03-08T23:25:00.581Z,4.00
2024-03-08T23:27:30.392Z,4.00
2024-03-08T23:30:11.605Z,4.00
2024-03-08T23:32:45.695Z,4.00
2024-03-08T23:35:19.645Z,4.00
2024-03-08T23:37:51.649Z,3.98
2024-03-08T23:40:29.112Z,3.92
2024-03-08T23:43:00.328Z,3.90
2024-03-08T23:45:41.230Z,3.90
2024-03-08T23:48:17.997Z,3.90
2024-03-08T23:50:57.146Z,3.90
2024-03-08T23:53:43.302Z,3.80
2024-03-08T23:56:31.269Z,3.80
2024-03-08T23:59:13.794Z,3.80
